sensor_id;sensor_type;location;lat;lon;timestamp;temperature;humidity
62555;DHT22;48610;52.144;8.624;2023-04-24T00:01:49;11.90;99.90
62555;DHT22;48610;52.144;8.624;2023-04-24T00:04:50;11.80;99.90
62555;DHT22;48610;52.144;8.624;2023-04-24T00:07:51;11.60;99.90
62555;DHT22;48610;52.144;8.624;2023-04-24T00:10:54;11.40;99.90
62555;DHT22;48610;52.144;8.624;2023-04-24T00:13:56;11.30;99.90
62555;DHT22;48610;52.144;8.624;2023-04-24T00:16:56;11.30;99.90
62555;DHT22;48610;52.144;8.624;2023-04-24T00:19:57;11.40;99.90
62555;DHT22;48610;52.144;8.624;2023-04-24T00:23:02;11.40;99.90
62555;DHT22;48610;52.144;8.624;2023-04-24T00:26:02;11.40;99.90
62555;DHT22;48610;52.144;8.624;2023-04-24T00:29:03;11.50;99.90
62555;DHT22;48610;52.144;8.624;2023-04-24T00:32:04;11.70;99.90
62555;DHT22;48610;52.144;8.624;2023-04-24T00:35:05;11.70;99.90
62555;DHT22;48610;52.144;8.624;2023-04-24T00:38:06;11.60;99.90
62555;DHT22;48610;52.144;8.624;2023-04-24T00:41:07;11.60;99.90
62555;DHT22;48610;52.144;8.624;2023-04-24T00:44:08;11.60;99.90
62555;DHT22;48610;52.144;8.624;2023-04-24T00:47:09;11.30;99.90
62555;DHT22;48610;52.144;8.624;2023-04-24T00:50:11;11.20;99.90
62555;DHT22;48610;52.144;8.624;2023-04-24T00:53:13;11.20;99.90
62555;DHT22;48610;52.144;8.624;2023-04-24T00:56:14;11.10;99.90
62555;DHT22;48610;52.144;8.624;2023-04-24T00:59:16;11.10;99.90
62555;DHT22;48610;52.144;8.624;2023-04-24T01:02:18;11.00;99.90
62555;DHT22;48610;52.144;8.624;2023-04-24T01:05:18;10.80;99.90
62555;DHT22;48610;52.144;8.624;2023-04-24T01:08:19;10.70;99.90
62555;DHT22;48610;52.144;8.624;2023-04-24T01:11:21;10.80;99.90
62555;DHT22;48610;52.144;8.624;2023-04-24T01:14:22;10.90;99.90
62555;DHT22;48610;52.144;8.624;2023-04-24T01:17:23;11.10;99.90
62555;DHT22;48610;52.144;8.624;2023-04-24T01:20:25;11.10;99.90
62555;DHT22;48610;52.144;8.624;2023-04-24T01:23:26;11.10;99.90
62555;DHT22;48610;52.144;8.624;2023-04-24T01:26:27;11.10;99.90
62555;DHT22;48610;52.144;8.624;2023-04-24T01:29:28;11.10;99.90
62555;DHT22;48610;52.144;8.624;2023-04-24T01:32:29;11.20;99.90
62555;DHT22;48610;52.144;8.624;2023-04-24T01:35:29;11.10;99.90
62555;DHT22;48610;52.144;8.624;2023-04-24T01:38:30;11.10;99.90
62555;DHT22;48610;52.144;8.624;2023-04-24T01:41:31;11.20;99.90
62555;DHT22;48610;52.144;8.624;2023-04-24T01:44:33;11.00;99.90
62555;DHT22;48610;52.144;8.624;2023-04-24T01:47:34;11.10;99.90
62555;DHT22;48610;52.144;8.624;2023-04-24T01:50:35;11.00;99.90
62555;DHT22;48610;52.144;8.624;2023-04-24T01:53:35;11.10;99.90
62555;DHT22;48610;52.144;8.624;2023-04-24T01:56:36;11.00;99.90
62555;DHT22;48610;52.144;8.624;2023-04-24T01:59:40;11.30;99.90
62555;DHT22;48610;52.144;8.624;2023-04-24T02:02:41;11.30;99.90
62555;DHT22;48610;52.144;8.624;2023-04-24T02:05:44;11.30;99.90
62555;DHT22;48610;52.144;8.624;2023-04-24T02:08:45;11.30;99.90
62555;DHT22;48610;52.144;8.624;2023-04-24T02:11:46;11.20;99.90
62555;DHT22;48610;52.144;8.624;2023-04-24T02:14:46;11.10;99.90
62555;DHT22;48610;52.144;8.624;2023-04-24T02:17:47;11.00;99.90
62555;DHT22;48610;52.144;8.624;2023-04-24T02:20:47;10.90;99.90
62555;DHT22;48610;52.144;8.624;2023-04-24T02:23:48;10.90;99.90
62555;DHT22;48610;52.144;8.624;2023-04-24T02:26:49;10.90;99.90
62555;DHT22;48610;52.144;8.624;2023-04-24T02:29:49;10.80;99.90
62555;DHT22;48610;52.144;8.624;2023-04-24T02:32:50;10.60;99.90
62555;DHT22;48610;52.144;8.624;2023-04-24T02:35:51;10.60;99.90
62555;DHT22;48610;52.144;8.624;2023-04-24T02:38:51;10.60;99.90
62555;DHT22;48610;52.144;8.624;2023-04-24T02:41:52;10.60;99.90
62555;DHT22;48610;52.144;8.624;2023-04-24T02:44:52;10.70;99.90
62555;DHT22;48610;52.144;8.624;2023-04-24T02:47:53;10.60;99.90
62555;DHT22;48610;52.144;8.624;2023-04-24T02:50:53;10.40;99.90
62555;DHT22;48610;52.144;8.624;2023-04-24T02:53:54;10.30;99.90
62555;DHT22;48610;52.144;8.624;2023-04-24T02:56:54;10.40;99.90
62555;DHT22;48610;52.144;8.624;2023-04-24T02:59:55;10.40;99.90
62555;DHT22;48610;52.144;8.624;2023-04-24T03:02:56;10.40;99.90
62555;DHT22;48610;52.144;8.624;2023-04-24T03:05:56;10.30;99.90
62555;DHT22;48610;52.144;8.624;2023-04-24T03:08:57;10.30;99.90
62555;DHT22;48610;52.144;8.624;2023-04-24T03:11:58;10.40;99.90
62555;DHT22;48610;52.144;8.624;2023-04-24T03:14:58;10.40;99.90
62555;DHT22;48610;52.144;8.624;2023-04-24T03:17:59;10.40;99.90
62555;DHT22;48610;52.144;8.624;2023-04-24T03:21:00;10.30;99.90
62555;DHT22;48610;52.144;8.624;2023-04-24T03:24:01;10.30;99.90
62555;DHT22;48610;52.144;8.624;2023-04-24T03:27:02;10.40;99.90
62555;DHT22;48610;52.144;8.624;2023-04-24T03:30:03;10.40;99.90
62555;DHT22;48610;52.144;8.624;2023-04-24T03:33:04;10.50;99.90
62555;DHT22;48610;52.144;8.624;2023-04-24T03:36:04;10.60;99.90
62555;DHT22;48610;52.144;8.624;2023-04-24T03:39:05;10.60;99.90
62555;DHT22;48610;52.144;8.624;2023-04-24T03:42:06;10.80;99.90
62555;DHT22;48610;52.144;8.624;2023-04-24T03:45:07;10.70;99.90
62555;DHT22;48610;52.144;8.624;2023-04-24T03:48:08;10.80;99.90
62555;DHT22;48610;52.144;8.624;2023-04-24T03:51:09;10.70;99.90
62555;DHT22;48610;52.144;8.624;2023-04-24T03:54:10;10.80;99.90
62555;DHT22;48610;52.144;8.624;2023-04-24T03:57:10;10.70;99.90
62555;DHT22;48610;52.144;8.624;2023-04-24T04:00:12;10.80;99.90
62555;DHT22;48610;52.144;8.624;2023-04-24T04:03:12;10.70;99.90
62555;DHT22;48610;52.144;8.624;2023-04-24T04:06:14;10.70;99.90
62555;DHT22;48610;52.144;8.624;2023-04-24T04:09:15;10.70;99.90
62555;DHT22;48610;52.144;8.624;2023-04-24T04:12:15;10.60;99.90
62555;DHT22;48610;52.144;8.624;2023-04-24T04:15:16;10.50;99.90
62555;DHT22;48610;52.144;8.624;2023-04-24T04:18:17;10.50;99.90
62555;DHT22;48610;52.144;8.624;2023-04-24T04:21:18;10.40;99.90
62555;DHT22;48610;52.144;8.624;2023-04-24T04:24:19;10.50;99.90
62555;DHT22;48610;52.144;8.624;2023-04-24T04:27:21;10.60;99.90
62555;DHT22;48610;52.144;8.624;2023-04-24T04:30:21;10.50;99.90
62555;DHT22;48610;52.144;8.624;2023-04-24T04:33:22;10.50;99.90
62555;DHT22;48610;52.144;8.624;2023-04-24T04:36:23;10.60;99.90
62555;DHT22;48610;52.144;8.624;2023-04-24T04:39:24;10.50;99.90
62555;DHT22;48610;52.144;8.624;2023-04-24T04:42:25;10.50;99.90
62555;DHT22;48610;52.144;8.624;2023-04-24T04:45:27;10.60;99.90
62555;DHT22;48610;52.144;8.624;2023-04-24T04:48:28;10.60;99.90
62555;DHT22;48610;52.144;8.624;2023-04-24T04:51:31;10.70;99.90
62555;DHT22;48610;52.144;8.624;2023-04-24T04:54:32;10.70;99.90
62555;DHT22;48610;52.144;8.624;2023-04-24T04:57:32;10.70;99.90
62555;DHT22;48610;52.144;8.624;2023-04-24T05:00:33;10.70;99.90
62555;DHT22;48610;52.144;8.624;2023-04-24T05:03:36;10.80;99.90
62555;DHT22;48610;52.144;8.624;2023-04-24T05:06:36;10.80;99.90
62555;DHT22;48610;52.144;8.624;2023-04-24T05:09:37;10.70;99.90
62555;DHT22;48610;52.144;8.624;2023-04-24T05:12:38;10.60;99.90
62555;DHT22;48610;52.144;8.624;2023-04-24T05:15:38;10.60;99.90
62555;DHT22;48610;52.144;8.624;2023-04-24T05:18:39;10.40;99.90
62555;DHT22;48610;52.144;8.624;2023-04-24T05:21:40;10.40;99.90
62555;DHT22;48610;52.144;8.624;2023-04-24T05:24:40;10.20;99.90
62555;DHT22;48610;52.144;8.624;2023-04-24T05:27:41;10.10;99.90
62555;DHT22;48610;52.144;8.624;2023-04-24T05:30:42;10.10;99.90
62555;DHT22;48610;52.144;8.624;2023-04-24T05:33:42;10.10;99.90
62555;DHT22;48610;52.144;8.624;2023-04-24T05:36:43;10.10;99.90
62555;DHT22;48610;52.144;8.624;2023-04-24T05:39:43;10.10;99.90
62555;DHT22;48610;52.144;8.624;2023-04-24T05:42:44;10.10;99.90
62555;DHT22;48610;52.144;8.624;2023-04-24T05:45:44;10.20;99.90
62555;DHT22;48610;52.144;8.624;2023-04-24T05:48:45;10.30;99.90
62555;DHT22;48610;52.144;8.624;2023-04-24T05:51:46;10.30;99.90
62555;DHT22;48610;52.144;8.624;2023-04-24T05:54:46;10.30;99.90
62555;DHT22;48610;52.144;8.624;2023-04-24T05:57:47;10.30;99.90
62555;DHT22;48610;52.144;8.624;2023-04-24T06:00:47;10.20;99.90
62555;DHT22;48610;52.144;8.624;2023-04-24T06:03:48;10.30;99.90
62555;DHT22;48610;52.144;8.624;2023-04-24T06:06:49;10.40;99.90
62555;DHT22;48610;52.144;8.624;2023-04-24T06:09:51;10.50;99.90
62555;DHT22;48610;52.144;8.624;2023-04-24T06:12:51;10.50;99.90
62555;DHT22;48610;52.144;8.624;2023-04-24T06:15:52;10.50;99.90
62555;DHT22;48610;52.144;8.624;2023-04-24T06:18:53;10.50;99.90
62555;DHT22;48610;52.144;8.624;2023-04-24T06:21:54;10.40;99.90
62555;DHT22;48610;52.144;8.624;2023-04-24T06:24:54;10.40;99.90
62555;DHT22;48610;52.144;8.624;2023-04-24T06:27:56;10.40;99.90
62555;DHT22;48610;52.144;8.624;2023-04-24T06:30:57;10.40;99.90
62555;DHT22;48610;52.144;8.624;2023-04-24T06:33:57;10.50;99.90
62555;DHT22;48610;52.144;8.624;2023-04-24T06:36:58;10.50;99.90
62555;DHT22;48610;52.144;8.624;2023-04-24T06:39:58;10.60;99.90
62555;DHT22;48610;52.144;8.624;2023-04-24T06:42:59;10.60;99.90
62555;DHT22;48610;52.144;8.624;2023-04-24T06:46:03;10.40;99.90
62555;DHT22;48610;52.144;8.624;2023-04-24T06:49:03;10.30;99.90
62555;DHT22;48610;52.144;8.624;2023-04-24T06:52:05;10.50;99.90
62555;DHT22;48610;52.144;8.624;2023-04-24T06:55:06;10.50;99.90
62555;DHT22;48610;52.144;8.624;2023-04-24T06:58:07;10.60;99.90
62555;DHT22;48610;52.144;8.624;2023-04-24T07:01:08;10.50;99.90
62555;DHT22;48610;52.144;8.624;2023-04-24T07:04:08;10.50;99.90
62555;DHT22;48610;52.144;8.624;2023-04-24T07:07:09;10.40;99.90
62555;DHT22;48610;52.144;8.624;2023-04-24T07:10:13;10.40;99.90
62555;DHT22;48610;52.144;8.624;2023-04-24T07:13:14;10.40;99.90
62555;DHT22;48610;52.144;8.624;2023-04-24T07:16:15;10.40;99.90
62555;DHT22;48610;52.144;8.624;2023-04-24T07:19:16;10.50;99.90
62555;DHT22;48610;52.144;8.624;2023-04-24T07:22:17;10.50;99.90
62555;DHT22;48610;52.144;8.624;2023-04-24T07:25:17;10.40;99.90
62555;DHT22;48610;52.144;8.624;2023-04-24T07:28:18;10.50;99.90
62555;DHT22;48610;52.144;8.624;2023-04-24T07:31:19;10.60;99.90
62555;DHT22;48610;52.144;8.624;2023-04-24T07:34:20;10.40;99.90
62555;DHT22;48610;52.144;8.624;2023-04-24T07:37:20;10.30;99.90
62555;DHT22;48610;52.144;8.624;2023-04-24T07:40:22;10.30;99.90
62555;DHT22;48610;52.144;8.624;2023-04-24T07:43:23;10.30;99.90
62555;DHT22;48610;52.144;8.624;2023-04-24T07:46:24;10.30;99.90
62555;DHT22;48610;52.144;8.624;2023-04-24T07:49:25;10.40;99.90
62555;DHT22;48610;52.144;8.624;2023-04-24T07:52:26;10.60;99.90
62555;DHT22;48610;52.144;8.624;2023-04-24T07:55:26;10.70;99.90
62555;DHT22;48610;52.144;8.624;2023-04-24T07:58:27;10.90;99.90
62555;DHT22;48610;52.144;8.624;2023-04-24T08:01:28;11.00;99.90
62555;DHT22;48610;52.144;8.624;2023-04-24T08:04:28;10.90;99.90
62555;DHT22;48610;52.144;8.624;2023-04-24T08:07:29;10.80;99.90
62555;DHT22;48610;52.144;8.624;2023-04-24T08:10:30;10.80;99.90
62555;DHT22;48610;52.144;8.624;2023-04-24T08:13:31;10.60;99.90
62555;DHT22;48610;52.144;8.624;2023-04-24T08:16:32;10.60;99.90
62555;DHT22;48610;52.144;8.624;2023-04-24T08:19:33;10.60;99.90
62555;DHT22;48610;52.144;8.624;2023-04-24T08:22:33;10.60;99.90
62555;DHT22;48610;52.144;8.624;2023-04-24T08:25:34;10.60;99.90
62555;DHT22;48610;52.144;8.624;2023-04-24T08:28:35;10.60;99.90
62555;DHT22;48610;52.144;8.624;2023-04-24T08:31:36;10.70;99.90
62555;DHT22;48610;52.144;8.624;2023-04-24T08:34:36;10.50;99.90
62555;DHT22;48610;52.144;8.624;2023-04-24T08:37:37;10.40;99.90
62555;DHT22;48610;52.144;8.624;2023-04-24T08:40:38;10.40;99.90
62555;DHT22;48610;52.144;8.624;2023-04-24T08:43:40;10.40;99.90
62555;DHT22;48610;52.144;8.624;2023-04-24T08:46:41;10.60;99.90
62555;DHT22;48610;52.144;8.624;2023-04-24T08:49:43;10.60;99.90
62555;DHT22;48610;52.144;8.624;2023-04-24T08:52:44;10.50;99.90
62555;DHT22;48610;52.144;8.624;2023-04-24T08:55:47;10.70;99.90
62555;DHT22;48610;52.144;8.624;2023-04-24T08:58:48;10.70;99.90
62555;DHT22;48610;52.144;8.624;2023-04-24T09:01:51;10.90;99.90
62555;DHT22;48610;52.144;8.624;2023-04-24T09:04:52;11.60;99.90
62555;DHT22;48610;52.144;8.624;2023-04-24T09:07:55;11.80;99.90
62555;DHT22;48610;52.144;8.624;2023-04-24T09:10:55;11.20;99.90
62555;DHT22;48610;52.144;8.624;2023-04-24T09:13:58;11.10;99.90
62555;DHT22;48610;52.144;8.624;2023-04-24T09:16:59;10.80;99.90
62555;DHT22;48610;52.144;8.624;2023-04-24T09:20:00;10.60;99.90
62555;DHT22;48610;52.144;8.624;2023-04-24T09:23:01;10.60;99.90
62555;DHT22;48610;52.144;8.624;2023-04-24T09:26:03;10.40;99.90
62555;DHT22;48610;52.144;8.624;2023-04-24T09:29:05;10.40;99.90
62555;DHT22;48610;52.144;8.624;2023-04-24T09:32:19;10.50;99.90
62555;DHT22;48610;52.144;8.624;2023-04-24T09:35:21;10.50;99.90
62555;DHT22;48610;52.144;8.624;2023-04-24T09:38:33;10.30;99.90
62555;DHT22;48610;52.144;8.624;2023-04-24T09:41:34;10.40;99.90
62555;DHT22;48610;52.144;8.624;2023-04-24T09:44:34;10.30;99.90
62555;DHT22;48610;52.144;8.624;2023-04-24T09:47:39;10.60;99.90
62555;DHT22;48610;52.144;8.624;2023-04-24T09:50:46;10.50;99.90
62555;DHT22;48610;52.144;8.624;2023-04-24T09:53:47;10.60;99.90
62555;DHT22;48610;52.144;8.624;2023-04-24T09:56:49;10.60;99.90
62555;DHT22;48610;52.144;8.624;2023-04-24T09:59:53;10.50;99.90
62555;DHT22;48610;52.144;8.624;2023-04-24T10:03:01;10.50;99.90
62555;DHT22;48610;52.144;8.624;2023-04-24T10:06:02;10.40;99.90
62555;DHT22;48610;52.144;8.624;2023-04-24T10:09:08;10.30;99.90
62555;DHT22;48610;52.144;8.624;2023-04-24T10:12:11;10.30;99.90
62555;DHT22;48610;52.144;8.624;2023-04-24T10:15:13;10.30;99.90
62555;DHT22;48610;52.144;8.624;2023-04-24T10:18:16;10.40;99.90
62555;DHT22;48610;52.144;8.624;2023-04-24T10:21:17;10.60;99.90
62555;DHT22;48610;52.144;8.624;2023-04-24T10:24:18;10.40;99.90
62555;DHT22;48610;52.144;8.624;2023-04-24T10:27:23;10.40;99.90
62555;DHT22;48610;52.144;8.624;2023-04-24T10:30:26;10.30;99.90
62555;DHT22;48610;52.144;8.624;2023-04-24T10:33:27;10.40;99.90
62555;DHT22;48610;52.144;8.624;2023-04-24T10:36:29;10.20;99.90
62555;DHT22;48610;52.144;8.624;2023-04-24T10:39:33;10.40;99.90
62555;DHT22;48610;52.144;8.624;2023-04-24T10:42:34;10.60;99.90
62555;DHT22;48610;52.144;8.624;2023-04-24T10:45:35;10.60;99.90
62555;DHT22;48610;52.144;8.624;2023-04-24T10:48:42;10.60;99.90
62555;DHT22;48610;52.144;8.624;2023-04-24T10:54:48;9.90;99.90
62555;DHT22;48610;52.144;8.624;2023-04-24T10:58:04;9.90;99.90
62555;DHT22;48610;52.144;8.624;2023-04-24T11:01:06;10.00;99.90
62555;DHT22;48610;52.144;8.624;2023-04-24T11:04:07;10.00;99.90
62555;DHT22;48610;52.144;8.624;2023-04-24T11:07:09;9.80;99.90
62555;DHT22;48610;52.144;8.624;2023-04-24T11:10:25;9.80;99.90
62555;DHT22;48610;52.144;8.624;2023-04-24T11:13:27;9.80;99.90
62555;DHT22;48610;52.144;8.624;2023-04-24T11:16:38;9.80;99.90
62555;DHT22;48610;52.144;8.624;2023-04-24T11:19:39;9.80;99.90
62555;DHT22;48610;52.144;8.624;2023-04-24T11:22:40;9.60;99.90
62555;DHT22;48610;52.144;8.624;2023-04-24T11:25:41;9.60;99.90
62555;DHT22;48610;52.144;8.624;2023-04-24T11:28:47;9.70;99.90
62555;DHT22;48610;52.144;8.624;2023-04-24T11:31:48;9.70;99.90
62555;DHT22;48610;52.144;8.624;2023-04-24T11:34:53;9.80;99.90
62555;DHT22;48610;52.144;8.624;2023-04-24T11:37:54;10.00;99.90
62555;DHT22;48610;52.144;8.624;2023-04-24T11:40:55;9.90;99.90
62555;DHT22;48610;52.144;8.624;2023-04-24T11:43:56;9.90;99.90
62555;DHT22;48610;52.144;8.624;2023-04-24T11:46:57;9.70;99.90
62555;DHT22;48610;52.144;8.624;2023-04-24T11:49:59;9.70;99.90
62555;DHT22;48610;52.144;8.624;2023-04-24T11:53:00;9.60;99.90
62555;DHT22;48610;52.144;8.624;2023-04-24T11:56:04;9.70;99.90
62555;DHT22;48610;52.144;8.624;2023-04-24T11:59:05;9.70;99.90
62555;DHT22;48610;52.144;8.624;2023-04-24T12:02:06;9.50;99.90
62555;DHT22;48610;52.144;8.624;2023-04-24T12:05:07;9.60;99.90
62555;DHT22;48610;52.144;8.624;2023-04-24T12:08:07;9.60;99.90
62555;DHT22;48610;52.144;8.624;2023-04-24T12:11:08;9.60;99.90
62555;DHT22;48610;52.144;8.624;2023-04-24T12:14:12;9.60;99.90
62555;DHT22;48610;52.144;8.624;2023-04-24T12:17:13;9.40;99.90
62555;DHT22;48610;52.144;8.624;2023-04-24T12:20:14;9.20;99.90
62555;DHT22;48610;52.144;8.624;2023-04-24T12:23:14;9.30;99.90
62555;DHT22;48610;52.144;8.624;2023-04-24T12:26:19;9.10;99.90
62555;DHT22;48610;52.144;8.624;2023-04-24T12:29:21;9.20;99.90
62555;DHT22;48610;52.144;8.624;2023-04-24T12:32:22;9.10;99.90
62555;DHT22;48610;52.144;8.624;2023-04-24T12:35:25;9.20;99.90
62555;DHT22;48610;52.144;8.624;2023-04-24T12:38:28;9.20;99.90
62555;DHT22;48610;52.144;8.624;2023-04-24T12:41:30;9.30;99.90
62555;DHT22;48610;52.144;8.624;2023-04-24T12:44:32;9.40;99.90
62555;DHT22;48610;52.144;8.624;2023-04-24T12:47:35;9.30;99.90
62555;DHT22;48610;52.144;8.624;2023-04-24T12:50:38;9.30;99.90
62555;DHT22;48610;52.144;8.624;2023-04-24T12:53:38;9.40;99.90
62555;DHT22;48610;52.144;8.624;2023-04-24T12:56:39;9.30;99.90
62555;DHT22;48610;52.144;8.624;2023-04-24T12:59:39;9.40;99.90
62555;DHT22;48610;52.144;8.624;2023-04-24T13:02:40;9.50;99.90
62555;DHT22;48610;52.144;8.624;2023-04-24T13:05:42;9.50;99.90
62555;DHT22;48610;52.144;8.624;2023-04-24T13:08:43;9.50;99.90
62555;DHT22;48610;52.144;8.624;2023-04-24T13:11:44;9.50;99.90
62555;DHT22;48610;52.144;8.624;2023-04-24T13:14:44;9.40;99.90
62555;DHT22;48610;52.144;8.624;2023-04-24T13:17:45;9.30;99.90
62555;DHT22;48610;52.144;8.624;2023-04-24T13:20:46;9.10;99.90
62555;DHT22;48610;52.144;8.624;2023-04-24T13:23:47;9.00;99.90
62555;DHT22;48610;52.144;8.624;2023-04-24T13:26:49;9.00;99.90
62555;DHT22;48610;52.144;8.624;2023-04-24T13:29:49;9.10;99.90
62555;DHT22;48610;52.144;8.624;2023-04-24T13:32:51;9.20;99.90
62555;DHT22;48610;52.144;8.624;2023-04-24T13:35:52;9.20;99.90
62555;DHT22;48610;52.144;8.624;2023-04-24T13:38:52;9.40;99.90
62555;DHT22;48610;52.144;8.624;2023-04-24T13:41:53;9.30;99.90
62555;DHT22;48610;52.144;8.624;2023-04-24T13:44:54;9.40;99.90
62555;DHT22;48610;52.144;8.624;2023-04-24T13:47:55;9.40;99.90
62555;DHT22;48610;52.144;8.624;2023-04-24T13:50:57;9.50;99.90
62555;DHT22;48610;52.144;8.624;2023-04-24T13:53:57;9.50;99.90
62555;DHT22;48610;52.144;8.624;2023-04-24T13:56:58;9.30;99.90
62555;DHT22;48610;52.144;8.624;2023-04-24T13:59:59;9.30;99.90
62555;DHT22;48610;52.144;8.624;2023-04-24T14:03:04;9.20;99.90
62555;DHT22;48610;52.144;8.624;2023-04-24T14:06:04;9.10;99.90
62555;DHT22;48610;52.144;8.624;2023-04-24T14:09:06;9.00;99.90
62555;DHT22;48610;52.144;8.624;2023-04-24T14:12:07;9.10;99.90
62555;DHT22;48610;52.144;8.624;2023-04-24T14:15:08;9.20;99.90
62555;DHT22;48610;52.144;8.624;2023-04-24T14:18:09;9.20;99.90
62555;DHT22;48610;52.144;8.624;2023-04-24T14:21:10;9.30;99.90
62555;DHT22;48610;52.144;8.624;2023-04-24T14:24:10;9.20;99.90
62555;DHT22;48610;52.144;8.624;2023-04-24T14:27:11;9.20;99.90
62555;DHT22;48610;52.144;8.624;2023-04-24T14:30:12;9.30;99.90
62555;DHT22;48610;52.144;8.624;2023-04-24T14:33:13;9.50;99.90
62555;DHT22;48610;52.144;8.624;2023-04-24T14:36:14;9.40;99.90
62555;DHT22;48610;52.144;8.624;2023-04-24T14:39:14;9.50;99.90
62555;DHT22;48610;52.144;8.624;2023-04-24T14:42:15;9.50;99.90
62555;DHT22;48610;52.144;8.624;2023-04-24T14:45:18;9.60;99.90
62555;DHT22;48610;52.144;8.624;2023-04-24T14:48:18;9.50;99.90
62555;DHT22;48610;52.144;8.624;2023-04-24T14:51:19;9.30;99.90
62555;DHT22;48610;52.144;8.624;2023-04-24T14:54:20;9.40;99.90
62555;DHT22;48610;52.144;8.624;2023-04-24T14:57:23;9.30;99.90
62555;DHT22;48610;52.144;8.624;2023-04-24T15:00:24;9.40;99.90
62555;DHT22;48610;52.144;8.624;2023-04-24T15:03:24;9.40;99.90
62555;DHT22;48610;52.144;8.624;2023-04-24T15:06:27;9.40;99.90
62555;DHT22;48610;52.144;8.624;2023-04-24T15:09:27;9.30;99.90
62555;DHT22;48610;52.144;8.624;2023-04-24T15:12:28;9.40;99.90
62555;DHT22;48610;52.144;8.624;2023-04-24T15:15:29;9.40;99.90
62555;DHT22;48610;52.144;8.624;2023-04-24T15:18:29;9.30;99.90
62555;DHT22;48610;52.144;8.624;2023-04-24T15:21:30;9.40;99.90
62555;DHT22;48610;52.144;8.624;2023-04-24T15:24:31;9.40;99.90
62555;DHT22;48610;52.144;8.624;2023-04-24T15:27:44;9.20;99.90
62555;DHT22;48610;52.144;8.624;2023-04-24T15:30:45;9.20;99.90
62555;DHT22;48610;52.144;8.624;2023-04-24T15:33:46;9.20;99.90
62555;DHT22;48610;52.144;8.624;2023-04-24T15:36:46;9.30;99.90
62555;DHT22;48610;52.144;8.624;2023-04-24T15:39:47;9.30;99.90
62555;DHT22;48610;52.144;8.624;2023-04-24T15:42:48;9.40;99.90
62555;DHT22;48610;52.144;8.624;2023-04-24T15:45:51;9.30;99.90
62555;DHT22;48610;52.144;8.624;2023-04-24T15:48:52;9.20;99.90
62555;DHT22;48610;52.144;8.624;2023-04-24T15:51:53;9.20;99.90
62555;DHT22;48610;52.144;8.624;2023-04-24T15:54:54;9.10;99.90
62555;DHT22;48610;52.144;8.624;2023-04-24T15:57:54;9.10;99.90
62555;DHT22;48610;52.144;8.624;2023-04-24T16:00:55;9.10;99.90
62555;DHT22;48610;52.144;8.624;2023-04-24T16:03:56;9.20;99.90
62555;DHT22;48610;52.144;8.624;2023-04-24T16:06:57;9.10;99.90
62555;DHT22;48610;52.144;8.624;2023-04-24T16:09:57;9.10;99.90
62555;DHT22;48610;52.144;8.624;2023-04-24T16:12:58;9.20;99.90
62555;DHT22;48610;52.144;8.624;2023-04-24T16:16:02;9.20;99.90
62555;DHT22;48610;52.144;8.624;2023-04-24T16:19:02;9.10;99.90
62555;DHT22;48610;52.144;8.624;2023-04-24T16:22:03;9.10;99.90
62555;DHT22;48610;52.144;8.624;2023-04-24T16:25:05;9.30;99.90
62555;DHT22;48610;52.144;8.624;2023-04-24T16:28:05;9.40;99.90
62555;DHT22;48610;52.144;8.624;2023-04-24T16:31:06;9.30;99.90
62555;DHT22;48610;52.144;8.624;2023-04-24T16:34:07;9.30;99.90
62555;DHT22;48610;52.144;8.624;2023-04-24T16:37:07;9.20;99.90
62555;DHT22;48610;52.144;8.624;2023-04-24T16:40:08;9.30;99.90
62555;DHT22;48610;52.144;8.624;2023-04-24T16:43:11;9.30;99.90
62555;DHT22;48610;52.144;8.624;2023-04-24T16:46:12;9.30;99.90
62555;DHT22;48610;52.144;8.624;2023-04-24T16:49:13;9.30;99.90
62555;DHT22;48610;52.144;8.624;2023-04-24T16:52:14;9.30;99.90
62555;DHT22;48610;52.144;8.624;2023-04-24T16:55:14;9.10;99.90
62555;DHT22;48610;52.144;8.624;2023-04-24T16:58:15;8.90;99.90
62555;DHT22;48610;52.144;8.624;2023-04-24T17:01:15;8.90;99.90
62555;DHT22;48610;52.144;8.624;2023-04-24T17:04:16;8.90;99.90
62555;DHT22;48610;52.144;8.624;2023-04-24T17:07:16;8.90;99.90
62555;DHT22;48610;52.144;8.624;2023-04-24T17:10:17;9.10;99.90
62555;DHT22;48610;52.144;8.624;2023-04-24T17:13:18;9.20;99.90
62555;DHT22;48610;52.144;8.624;2023-04-24T17:16:19;9.20;99.90
62555;DHT22;48610;52.144;8.624;2023-04-24T17:19:19;9.30;99.90
62555;DHT22;48610;52.144;8.624;2023-04-24T17:22:20;9.30;99.90
62555;DHT22;48610;52.144;8.624;2023-04-24T17:25:21;9.20;99.90
62555;DHT22;48610;52.144;8.624;2023-04-24T17:28:29;9.30;99.90
62555;DHT22;48610;52.144;8.624;2023-04-24T17:31:30;9.20;99.90
62555;DHT22;48610;52.144;8.624;2023-04-24T17:34:31;9.10;99.90
62555;DHT22;48610;52.144;8.624;2023-04-24T17:37:32;9.20;99.90
62555;DHT22;48610;52.144;8.624;2023-04-24T17:40:33;9.20;99.90
62555;DHT22;48610;52.144;8.624;2023-04-24T17:43:33;9.00;99.90
62555;DHT22;48610;52.144;8.624;2023-04-24T17:46:34;9.00;99.90
62555;DHT22;48610;52.144;8.624;2023-04-24T17:49:35;8.90;99.90
62555;DHT22;48610;52.144;8.624;2023-04-24T17:52:37;8.80;99.90
62555;DHT22;48610;52.144;8.624;2023-04-24T17:55:39;9.00;99.90
62555;DHT22;48610;52.144;8.624;2023-04-24T17:58:41;9.10;99.90
62555;DHT22;48610;52.144;8.624;2023-04-24T18:01:42;9.00;99.90
62555;DHT22;48610;52.144;8.624;2023-04-24T18:04:42;9.10;99.90
62555;DHT22;48610;52.144;8.624;2023-04-24T18:07:43;9.10;99.90
62555;DHT22;48610;52.144;8.624;2023-04-24T18:10:44;9.00;99.90
62555;DHT22;48610;52.144;8.624;2023-04-24T18:13:45;8.90;99.90
62555;DHT22;48610;52.144;8.624;2023-04-24T18:16:46;9.00;99.90
62555;DHT22;48610;52.144;8.624;2023-04-24T18:19:46;9.00;99.90
62555;DHT22;48610;52.144;8.624;2023-04-24T18:22:47;9.00;99.90
62555;DHT22;48610;52.144;8.624;2023-04-24T18:25:47;9.00;99.90
62555;DHT22;48610;52.144;8.624;2023-04-24T18:28:48;9.00;99.90
62555;DHT22;48610;52.144;8.624;2023-04-24T18:31:49;9.00;99.90
62555;DHT22;48610;52.144;8.624;2023-04-24T18:34:49;9.00;99.90
62555;DHT22;48610;52.144;8.624;2023-04-24T18:37:51;8.80;99.90
62555;DHT22;48610;52.144;8.624;2023-04-24T18:40:51;8.80;99.90
62555;DHT22;48610;52.144;8.624;2023-04-24T18:43:52;8.90;99.90
62555;DHT22;48610;52.144;8.624;2023-04-24T18:46:53;8.80;99.90
62555;DHT22;48610;52.144;8.624;2023-04-24T18:49:53;8.70;99.90
62555;DHT22;48610;52.144;8.624;2023-04-24T18:52:55;8.70;99.90
62555;DHT22;48610;52.144;8.624;2023-04-24T18:55:55;8.60;99.90
62555;DHT22;48610;52.144;8.624;2023-04-24T18:58:56;8.40;99.90
62555;DHT22;48610;52.144;8.624;2023-04-24T19:01:57;8.50;99.90
62555;DHT22;48610;52.144;8.624;2023-04-24T19:04:57;8.50;99.90
62555;DHT22;48610;52.144;8.624;2023-04-24T19:07:58;8.60;99.90
62555;DHT22;48610;52.144;8.624;2023-04-24T19:10:58;8.50;99.90
62555;DHT22;48610;52.144;8.624;2023-04-24T19:13:59;8.50;99.90
62555;DHT22;48610;52.144;8.624;2023-04-24T19:17:03;8.60;99.90